sensor_id;sensor_type;location;lat;lon;timestamp;P1;durP1;ratioP1;P2;durP2;ratioP2
16826;SDS011;8530;49.540;8.576;2023-11-21T00:02:10;11.00;;;3.73;;
16826;SDS011;8530;49.540;8.576;2023-11-21T00:04:38;8.90;;;3.53;;
16826;SDS011;8530;49.540;8.576;2023-11-21T00:07:05;12.03;;;4.80;;
16826;SDS011;8530;49.540;8.576;2023-11-21T00:09:32;8.70;;;3.97;;
16826;SDS011;8530;49.540;8.576;2023-11-21T00:11:58;8.80;;;4.23;;
16826;SDS011;8530;49.540;8.576;2023-11-21T00:14:25;12.30;;;4.20;;
16826;SDS011;8530;49.540;8.576;2023-11-21T00:16:51;7.93;;;4.67;;
16826;SDS011;8530;49.540;8.576;2023-11-21T00:19:18;13.07;;;4.20;;
16826;SDS011;8530;49.540;8.576;2023-11-21T00:21:46;10.13;;;4.60;;
16826;SDS011;8530;49.540;8.576;2023-11-21T00:24:13;8.80;;;4.23;;
16826;SDS011;8530;49.540;8.576;2023-11-21T00:26:40;8.37;;;4.40;;
16826;SDS011;8530;49.540;8.576;2023-11-21T00:29:06;8.33;;;4.50;;
16826;SDS011;8530;49.540;8.576;2023-11-21T00:31:34;12.00;;;4.40;;
16826;SDS011;8530;49.540;8.576;2023-11-21T00:34:01;7.97;;;4.20;;
16826;SDS011;8530;49.540;8.576;2023-11-21T00:36:29;8.90;;;4.10;;
16826;SDS011;8530;49.540;8.576;2023-11-21T00:38:58;6.20;;;3.43;;
16826;SDS011;8530;49.540;8.576;2023-11-21T00:41:25;6.23;;;3.93;;
16826;SDS011;8530;49.540;8.576;2023-11-21T00:43:52;5.70;;;3.37;;
16826;SDS011;8530;49.540;8.576;2023-11-21T00:46:19;9.37;;;4.20;;
16826;SDS011;8530;49.540;8.576;2023-11-21T00:48:46;9.50;;;4.53;;
16826;SDS011;8530;49.540;8.576;2023-11-21T00:51:12;9.73;;;4.33;;
16826;SDS011;8530;49.540;8.576;2023-11-21T00:53:39;5.97;;;3.63;;
16826;SDS011;8530;49.540;8.576;2023-11-21T00:56:08;10.63;;;4.73;;
16826;SDS011;8530;49.540;8.576;2023-11-21T00:58:34;10.00;;;5.07;;
16826;SDS011;8530;49.540;8.576;2023-11-21T01:01:01;6.90;;;4.50;;
16826;SDS011;8530;49.540;8.576;2023-11-21T01:03:28;16.73;;;4.50;;
16826;SDS011;8530;49.540;8.576;2023-11-21T01:05:55;13.03;;;4.70;;
16826;SDS011;8530;49.540;8.576;2023-11-21T01:08:22;6.00;;;3.97;;
16826;SDS011;8530;49.540;8.576;2023-11-21T01:10:49;10.90;;;4.40;;
16826;SDS011;8530;49.540;8.576;2023-11-21T01:13:17;10.17;;;4.63;;
16826;SDS011;8530;49.540;8.576;2023-11-21T01:15:44;7.23;;;4.50;;
16826;SDS011;8530;49.540;8.576;2023-11-21T01:18:11;11.90;;;3.90;;
16826;SDS011;8530;49.540;8.576;2023-11-21T01:20:38;8.80;;;3.97;;
16826;SDS011;8530;49.540;8.576;2023-11-21T01:23:05;7.87;;;4.03;;
16826;SDS011;8530;49.540;8.576;2023-11-21T01:25:31;9.63;;;4.80;;
16826;SDS011;8530;49.540;8.576;2023-11-21T01:27:58;9.13;;;3.93;;
16826;SDS011;8530;49.540;8.576;2023-11-21T01:30:26;7.80;;;4.10;;
16826;SDS011;8530;49.540;8.576;2023-11-21T01:32:53;16.20;;;5.00;;
16826;SDS011;8530;49.540;8.576;2023-11-21T01:35:20;11.80;;;4.80;;
16826;SDS011;8530;49.540;8.576;2023-11-21T01:37:46;11.50;;;4.17;;
16826;SDS011;8530;49.540;8.576;2023-11-21T01:40:13;11.03;;;4.50;;
16826;SDS011;8530;49.540;8.576;2023-11-21T01:42:40;7.53;;;4.63;;
16826;SDS011;8530;49.540;8.576;2023-11-21T01:45:08;9.23;;;4.60;;
16826;SDS011;8530;49.540;8.576;2023-11-21T01:47:39;8.20;;;3.37;;
16826;SDS011;8530;49.540;8.576;2023-11-21T01:50:07;5.10;;;4.10;;
16826;SDS011;8530;49.540;8.576;2023-11-21T01:52:37;7.20;;;3.87;;
16826;SDS011;8530;49.540;8.576;2023-11-21T01:55:06;11.97;;;4.70;;
16826;SDS011;8530;49.540;8.576;2023-11-21T01:57:34;6.20;;;3.80;;
16826;SDS011;8530;49.540;8.576;2023-11-21T02:00:02;7.00;;;3.50;;
16826;SDS011;8530;49.540;8.576;2023-11-21T02:02:41;10.17;;;4.17;;
16826;SDS011;8530;49.540;8.576;2023-11-21T02:05:08;5.40;;;3.80;;
16826;SDS011;8530;49.540;8.576;2023-11-21T02:07:37;6.87;;;4.47;;
16826;SDS011;8530;49.540;8.576;2023-11-21T02:10:05;7.77;;;4.70;;
16826;SDS011;8530;49.540;8.576;2023-11-21T02:12:32;12.33;;;4.53;;
16826;SDS011;8530;49.540;8.576;2023-11-21T02:15:00;8.00;;;4.33;;
16826;SDS011;8530;49.540;8.576;2023-11-21T02:17:27;12.30;;;4.23;;
16826;SDS011;8530;49.540;8.576;2023-11-21T02:19:55;6.50;;;3.97;;
16826;SDS011;8530;49.540;8.576;2023-11-21T02:22:21;9.47;;;4.63;;
16826;SDS011;8530;49.540;8.576;2023-11-21T02:24:52;6.93;;;4.50;;
16826;SDS011;8530;49.540;8.576;2023-11-21T02:27:19;6.27;;;3.60;;
16826;SDS011;8530;49.540;8.576;2023-11-21T02:29:48;12.77;;;4.73;;
16826;SDS011;8530;49.540;8.576;2023-11-21T02:32:15;12.37;;;4.27;;
16826;SDS011;8530;49.540;8.576;2023-11-21T02:34:44;5.70;;;4.43;;
16826;SDS011;8530;49.540;8.576;2023-11-21T02:37:10;8.03;;;3.90;;
16826;SDS011;8530;49.540;8.576;2023-11-21T02:39:37;8.60;;;4.80;;
16826;SDS011;8530;49.540;8.576;2023-11-21T02:42:05;10.87;;;5.23;;
16826;SDS011;8530;49.540;8.576;2023-11-21T02:44:32;18.53;;;5.80;;
16826;SDS011;8530;49.540;8.576;2023-11-21T02:46:59;8.03;;;3.90;;
16826;SDS011;8530;49.540;8.576;2023-11-21T02:49:26;8.10;;;4.50;;
16826;SDS011;8530;49.540;8.576;2023-11-21T02:51:53;13.77;;;4.43;;
16826;SDS011;8530;49.540;8.576;2023-11-21T02:54:20;9.10;;;5.90;;
16826;SDS011;8530;49.540;8.576;2023-11-21T02:56:47;7.40;;;4.43;;
16826;SDS011;8530;49.540;8.576;2023-11-21T02:59:16;12.03;;;4.60;;
16826;SDS011;8530;49.540;8.576;2023-11-21T03:01:44;9.43;;;4.30;;
16826;SDS011;8530;49.540;8.576;2023-11-21T03:04:11;8.13;;;4.53;;
16826;SDS011;8530;49.540;8.576;2023-11-21T03:06:44;13.03;;;5.13;;
16826;SDS011;8530;49.540;8.576;2023-11-21T03:09:11;7.70;;;3.90;;
16826;SDS011;8530;49.540;8.576;2023-11-21T03:11:38;8.03;;;4.73;;
16826;SDS011;8530;49.540;8.576;2023-11-21T03:14:05;6.07;;;4.30;;
16826;SDS011;8530;49.540;8.576;2023-11-21T03:16:33;15.80;;;5.43;;
16826;SDS011;8530;49.540;8.576;2023-11-21T03:19:00;9.33;;;3.97;;
16826;SDS011;8530;49.540;8.576;2023-11-21T03:21:27;7.20;;;4.63;;
16826;SDS011;8530;49.540;8.576;2023-11-21T03:23:54;8.13;;;4.40;;
16826;SDS011;8530;49.540;8.576;2023-11-21T03:26:21;10.43;;;6.07;;
16826;SDS011;8530;49.540;8.576;2023-11-21T03:28:47;7.27;;;3.80;;
16826;SDS011;8530;49.540;8.576;2023-11-21T03:31:15;10.50;;;5.23;;
16826;SDS011;8530;49.540;8.576;2023-11-21T03:33:44;11.23;;;5.60;;
16826;SDS011;8530;49.540;8.576;2023-11-21T03:36:11;7.23;;;4.40;;
16826;SDS011;8530;49.540;8.576;2023-11-21T03:38:37;6.47;;;4.20;;
16826;SDS011;8530;49.540;8.576;2023-11-21T03:41:04;10.67;;;4.87;;
16826;SDS011;8530;49.540;8.576;2023-11-21T03:43:32;7.50;;;5.40;;
16826;SDS011;8530;49.540;8.576;2023-11-21T03:45:58;10.30;;;5.20;;
16826;SDS011;8530;49.540;8.576;2023-11-21T03:48:25;6.80;;;4.50;;
16826;SDS011;8530;49.540;8.576;2023-11-21T03:50:53;5.07;;;4.00;;
16826;SDS011;8530;49.540;8.576;2023-11-21T03:53:20;6.30;;;4.50;;
16826;SDS011;8530;49.540;8.576;2023-11-21T03:55:46;7.77;;;5.17;;
16826;SDS011;8530;49.540;8.576;2023-11-21T03:58:14;8.43;;;4.53;;
16826;SDS011;8530;49.540;8.576;2023-11-21T04:00:41;6.37;;;4.70;;
16826;SDS011;8530;49.540;8.576;2023-11-21T04:03:07;10.53;;;4.73;;
16826;SDS011;8530;49.540;8.576;2023-11-21T04:05:34;9.53;;;4.53;;
16826;SDS011;8530;49.540;8.576;2023-11-21T04:08:03;13.90;;;5.40;;
16826;SDS011;8530;49.540;8.576;2023-11-21T04:10:30;5.50;;;4.93;;
16826;SDS011;8530;49.540;8.576;2023-11-21T04:12:56;7.63;;;4.47;;
16826;SDS011;8530;49.540;8.576;2023-11-21T04:15:23;9.00;;;4.77;;
16826;SDS011;8530;49.540;8.576;2023-11-21T04:17:50;8.37;;;4.23;;
16826;SDS011;8530;49.540;8.576;2023-11-21T04:20:17;10.10;;;4.70;;
16826;SDS011;8530;49.540;8.576;2023-11-21T04:22:44;7.87;;;4.17;;
16826;SDS011;8530;49.540;8.576;2023-11-21T04:25:13;10.53;;;5.60;;
16826;SDS011;8530;49.540;8.576;2023-11-21T04:27:40;7.83;;;3.97;;
16826;SDS011;8530;49.540;8.576;2023-11-21T04:30:09;15.17;;;6.50;;
16826;SDS011;8530;49.540;8.576;2023-11-21T04:32:36;9.00;;;5.90;;
16826;SDS011;8530;49.540;8.576;2023-11-21T04:35:04;8.13;;;6.10;;
16826;SDS011;8530;49.540;8.576;2023-11-21T04:37:31;10.80;;;6.50;;
16826;SDS011;8530;49.540;8.576;2023-11-21T04:39:58;10.70;;;6.27;;
16826;SDS011;8530;49.540;8.576;2023-11-21T04:42:26;11.63;;;6.37;;
16826;SDS011;8530;49.540;8.576;2023-11-21T04:44:54;14.83;;;7.30;;
16826;SDS011;8530;49.540;8.576;2023-11-21T04:47:20;9.63;;;5.83;;
16826;SDS011;8530;49.540;8.576;2023-11-21T04:49:47;12.77;;;6.20;;
16826;SDS011;8530;49.540;8.576;2023-11-21T04:52:14;8.50;;;5.33;;
16826;SDS011;8530;49.540;8.576;2023-11-21T04:54:40;9.83;;;5.80;;
16826;SDS011;8530;49.540;8.576;2023-11-21T04:57:07;12.23;;;6.27;;
16826;SDS011;8530;49.540;8.576;2023-11-21T04:59:36;13.33;;;6.60;;
16826;SDS011;8530;49.540;8.576;2023-11-21T05:02:03;16.17;;;5.73;;
16826;SDS011;8530;49.540;8.576;2023-11-21T05:04:30;8.47;;;5.73;;
16826;SDS011;8530;49.540;8.576;2023-11-21T05:06:57;13.40;;;6.43;;
16826;SDS011;8530;49.540;8.576;2023-11-21T05:09:23;8.70;;;5.90;;
16826;SDS011;8530;49.540;8.576;2023-11-21T05:11:50;12.90;;;5.77;;
16826;SDS011;8530;49.540;8.576;2023-11-21T05:14:18;8.47;;;5.40;;
16826;SDS011;8530;49.540;8.576;2023-11-21T05:16:47;10.43;;;6.47;;
16826;SDS011;8530;49.540;8.576;2023-11-21T05:19:15;9.77;;;5.37;;
16826;SDS011;8530;49.540;8.576;2023-11-21T05:21:42;10.13;;;5.93;;
16826;SDS011;8530;49.540;8.576;2023-11-21T05:24:09;6.30;;;4.90;;
16826;SDS011;8530;49.540;8.576;2023-11-21T05:26:36;8.30;;;5.07;;
16826;SDS011;8530;49.540;8.576;2023-11-21T05:29:03;5.70;;;4.83;;
16826;SDS011;8530;49.540;8.576;2023-11-21T05:31:30;7.30;;;4.60;;
16826;SDS011;8530;49.540;8.576;2023-11-21T05:33:58;7.57;;;4.80;;
16826;SDS011;8530;49.540;8.576;2023-11-21T05:36:25;9.23;;;5.10;;
16826;SDS011;8530;49.540;8.576;2023-11-21T05:38:51;5.00;;;4.23;;
16826;SDS011;8530;49.540;8.576;2023-11-21T05:41:18;6.77;;;4.73;;
16826;SDS011;8530;49.540;8.576;2023-11-21T05:43:45;8.77;;;4.80;;
16826;SDS011;8530;49.540;8.576;2023-11-21T05:46:12;10.23;;;5.53;;
16826;SDS011;8530;49.540;8.576;2023-11-21T05:48:39;7.33;;;5.00;;
16826;SDS011;8530;49.540;8.576;2023-11-21T05:51:07;6.67;;;4.70;;
16826;SDS011;8530;49.540;8.576;2023-11-21T05:53:34;11.00;;;6.40;;
16826;SDS011;8530;49.540;8.576;2023-11-21T05:56:01;5.47;;;4.90;;
16826;SDS011;8530;49.540;8.576;2023-11-21T05:58:28;7.03;;;5.40;;
16826;SDS011;8530;49.540;8.576;2023-11-21T06:00:55;10.70;;;5.97;;
16826;SDS011;8530;49.540;8.576;2023-11-21T06:03:22;9.23;;;5.63;;
16826;SDS011;8530;49.540;8.576;2023-11-21T06:05:50;5.73;;;5.10;;
16826;SDS011;8530;49.540;8.576;2023-11-21T06:08:18;6.13;;;4.77;;
16826;SDS011;8530;49.540;8.576;2023-11-21T06:10:45;10.40;;;6.70;;
16826;SDS011;8530;49.540;8.576;2023-11-21T06:13:14;9.40;;;6.37;;
16826;SDS011;8530;49.540;8.576;2023-11-21T06:15:41;8.63;;;6.53;;
16826;SDS011;8530;49.540;8.576;2023-11-21T06:18:08;10.00;;;6.90;;
16826;SDS011;8530;49.540;8.576;2023-11-21T06:20:36;11.13;;;6.90;;
16826;SDS011;8530;49.540;8.576;2023-11-21T06:23:03;16.47;;;7.50;;
16826;SDS011;8530;49.540;8.576;2023-11-21T06:25:32;9.07;;;7.30;;
16826;SDS011;8530;49.540;8.576;2023-11-21T06:28:01;13.40;;;8.07;;
16826;SDS011;8530;49.540;8.576;2023-11-21T06:30:28;14.03;;;9.10;;
16826;SDS011;8530;49.540;8.576;2023-11-21T06:32:54;10.33;;;8.67;;
16826;SDS011;8530;49.540;8.576;2023-11-21T06:35:21;10.77;;;8.80;;
16826;SDS011;8530;49.540;8.576;2023-11-21T06:37:48;15.20;;;9.10;;
16826;SDS011;8530;49.540;8.576;2023-11-21T06:40:16;15.00;;;9.07;;
16826;SDS011;8530;49.540;8.576;2023-11-21T06:42:44;14.77;;;10.33;;
16826;SDS011;8530;49.540;8.576;2023-11-21T06:45:11;11.50;;;10.30;;
16826;SDS011;8530;49.540;8.576;2023-11-21T06:47:39;13.43;;;9.70;;
16826;SDS011;8530;49.540;8.576;2023-11-21T06:50:06;13.67;;;10.40;;
16826;SDS011;8530;49.540;8.576;2023-11-21T06:52:34;14.73;;;11.60;;
16826;SDS011;8530;49.540;8.576;2023-11-21T06:55:00;14.93;;;11.00;;
16826;SDS011;8530;49.540;8.576;2023-11-21T06:57:28;16.60;;;10.13;;
16826;SDS011;8530;49.540;8.576;2023-11-21T06:59:56;18.63;;;11.60;;
16826;SDS011;8530;49.540;8.576;2023-11-21T07:02:23;13.50;;;11.00;;
16826;SDS011;8530;49.540;8.576;2023-11-21T07:04:50;13.70;;;9.63;;
16826;SDS011;8530;49.540;8.576;2023-11-21T07:07:17;17.20;;;11.40;;
16826;SDS011;8530;49.540;8.576;2023-11-21T07:09:44;20.07;;;11.90;;
16826;SDS011;8530;49.540;8.576;2023-11-21T07:12:11;12.80;;;11.40;;
16826;SDS011;8530;49.540;8.576;2023-11-21T07:14:39;14.37;;;9.97;;
16826;SDS011;8530;49.540;8.576;2023-11-21T07:17:09;12.13;;;9.90;;
16826;SDS011;8530;49.540;8.576;2023-11-21T07:19:37;14.80;;;11.00;;
16826;SDS011;8530;49.540;8.576;2023-11-21T07:22:03;17.03;;;9.40;;
16826;SDS011;8530;49.540;8.576;2023-11-21T07:24:30;13.17;;;10.53;;
16826;SDS011;8530;49.540;8.576;2023-11-21T07:26:57;11.40;;;8.97;;
16826;SDS011;8530;49.540;8.576;2023-11-21T07:29:24;15.77;;;11.53;;
16826;SDS011;8530;49.540;8.576;2023-11-21T07:31:51;9.30;;;8.40;;
16826;SDS011;8530;49.540;8.576;2023-11-21T07:34:20;10.50;;;8.70;;
16826;SDS011;8530;49.540;8.576;2023-11-21T07:36:46;9.90;;;7.67;;
16826;SDS011;8530;49.540;8.576;2023-11-21T07:39:13;11.17;;;8.50;;
16826;SDS011;8530;49.540;8.576;2023-11-21T07:41:41;8.10;;;7.30;;
16826;SDS011;8530;49.540;8.576;2023-11-21T07:44:13;8.73;;;7.70;;
16826;SDS011;8530;49.540;8.576;2023-11-21T07:46:41;10.33;;;8.93;;
16826;SDS011;8530;49.540;8.576;2023-11-21T07:49:08;7.93;;;7.13;;
16826;SDS011;8530;49.540;8.576;2023-11-21T07:51:36;8.07;;;6.60;;
16826;SDS011;8530;49.540;8.576;2023-11-21T07:54:03;11.03;;;8.93;;
16826;SDS011;8530;49.540;8.576;2023-11-21T07:56:30;9.83;;;8.80;;
16826;SDS011;8530;49.540;8.576;2023-11-21T07:58:57;11.63;;;10.43;;
16826;SDS011;8530;49.540;8.576;2023-11-21T08:01:23;11.27;;;9.20;;
16826;SDS011;8530;49.540;8.576;2023-11-21T08:03:50;15.43;;;11.00;;
16826;SDS011;8530;49.540;8.576;2023-11-21T08:06:17;12.73;;;11.43;;
16826;SDS011;8530;49.540;8.576;2023-11-21T08:08:45;16.90;;;12.00;;
16826;SDS011;8530;49.540;8.576;2023-11-21T08:11:12;18.37;;;13.57;;
16826;SDS011;8530;49.540;8.576;2023-11-21T08:13:39;24.00;;;13.80;;
16826;SDS011;8530;49.540;8.576;2023-11-21T08:16:06;11.43;;;9.80;;
16826;SDS011;8530;49.540;8.576;2023-11-21T08:18:33;26.70;;;16.90;;
16826;SDS011;8530;49.540;8.576;2023-11-21T08:21:00;24.13;;;16.30;;
16826;SDS011;8530;49.540;8.576;2023-11-21T08:23:28;9.47;;;8.27;;
16826;SDS011;8530;49.540;8.576;2023-11-21T08:25:56;14.93;;;12.33;;
16826;SDS011;8530;49.540;8.576;2023-11-21T08:28:22;14.77;;;13.27;;
16826;SDS011;8530;49.540;8.576;2023-11-21T08:30:51;10.60;;;9.50;;
16826;SDS011;8530;49.540;8.576;2023-11-21T08:33:17;10.90;;;8.87;;
16826;SDS011;8530;49.540;8.576;2023-11-21T08:35:44;7.80;;;6.70;;
16826;SDS011;8530;49.540;8.576;2023-11-21T08:38:11;8.40;;;6.60;;
16826;SDS011;8530;49.540;8.576;2023-11-21T08:40:38;6.90;;;6.20;;
16826;SDS011;8530;49.540;8.576;2023-11-21T08:43:06;6.30;;;5.70;;
16826;SDS011;8530;49.540;8.576;2023-11-21T08:45:33;6.33;;;5.73;;
16826;SDS011;8530;49.540;8.576;2023-11-21T08:48:00;3.43;;;3.17;;
16826;SDS011;8530;49.540;8.576;2023-11-21T08:50:27;5.00;;;3.93;;
16826;SDS011;8530;49.540;8.576;2023-11-21T08:52:54;4.30;;;3.97;;
16826;SDS011;8530;49.540;8.576;2023-11-21T08:55:20;2.80;;;2.60;;
16826;SDS011;8530;49.540;8.576;2023-11-21T08:57:47;2.70;;;2.50;;
16826;SDS011;8530;49.540;8.576;2023-11-21T09:00:16;2.97;;;2.63;;
16826;SDS011;8530;49.540;8.576;2023-11-21T09:02:43;2.40;;;2.20;;
16826;SDS011;8530;49.540;8.576;2023-11-21T09:05:11;2.50;;;2.30;;
16826;SDS011;8530;49.540;8.576;2023-11-21T09:07:39;2.50;;;1.87;;
16826;SDS011;8530;49.540;8.576;2023-11-21T09:10:08;2.63;;;2.43;;
16826;SDS011;8530;49.540;8.576;2023-11-21T09:12:35;3.97;;;2.83;;
16826;SDS011;8530;49.540;8.576;2023-11-21T09:15:03;2.00;;;1.90;;
16826;SDS011;8530;49.540;8.576;2023-11-21T09:17:32;3.47;;;2.63;;
16826;SDS011;8530;49.540;8.576;2023-11-21T09:20:00;2.80;;;2.50;;
16826;SDS011;8530;49.540;8.576;2023-11-21T09:22:28;2.47;;;2.27;;
16826;SDS011;8530;49.540;8.576;2023-11-21T09:24:56;4.10;;;3.40;;
16826;SDS011;8530;49.540;8.576;2023-11-21T09:27:23;4.03;;;2.80;;
16826;SDS011;8530;49.540;8.576;2023-11-21T09:29:51;4.00;;;3.60;;
16826;SDS011;8530;49.540;8.576;2023-11-21T09:32:17;4.80;;;4.30;;
16826;SDS011;8530;49.540;8.576;2023-11-21T09:34:47;4.30;;;3.90;;
16826;SDS011;8530;49.540;8.576;2023-11-21T09:37:14;4.37;;;3.97;;
16826;SDS011;8530;49.540;8.576;2023-11-21T09:39:41;4.07;;;3.73;;
16826;SDS011;8530;49.540;8.576;2023-11-21T09:42:08;5.67;;;5.17;;
16826;SDS011;8530;49.540;8.576;2023-11-21T09:44:42;5.10;;;4.70;;
16826;SDS011;8530;49.540;8.576;2023-11-21T09:47:14;6.80;;;5.33;;
16826;SDS011;8530;49.540;8.576;2023-11-21T09:49:42;5.53;;;5.03;;
16826;SDS011;8530;49.540;8.576;2023-11-21T09:52:18;6.60;;;5.93;;
16826;SDS011;8530;49.540;8.576;2023-11-21T09:54:50;7.70;;;6.23;;
16826;SDS011;8530;49.540;8.576;2023-11-21T09:57:19;7.30;;;6.60;;
16826;SDS011;8530;49.540;8.576;2023-11-21T09:59:47;7.27;;;6.53;;
16826;SDS011;8530;49.540;8.576;2023-11-21T10:02:17;8.00;;;7.20;;
16826;SDS011;8530;49.540;8.576;2023-11-21T10:04:46;9.07;;;8.00;;
16826;SDS011;8530;49.540;8.576;2023-11-21T10:07:13;8.50;;;7.17;;
16826;SDS011;8530;49.540;8.576;2023-11-21T10:09:45;9.40;;;6.97;;
16826;SDS011;8530;49.540;8.576;2023-11-21T10:12:13;9.20;;;8.30;;
16826;SDS011;8530;49.540;8.576;2023-11-21T10:14:41;7.83;;;7.00;;
16826;SDS011;8530;49.540;8.576;2023-11-21T10:17:10;12.20;;;8.70;;
16826;SDS011;8530;49.540;8.576;2023-11-21T10:19:41;9.90;;;8.30;;
16826;SDS011;8530;49.540;8.576;2023-11-21T10:22:08;13.77;;;9.43;;
16826;SDS011;8530;49.540;8.576;2023-11-21T10:24:36;10.43;;;8.10;;
16826;SDS011;8530;49.540;8.576;2023-11-21T10:27:03;9.57;;;8.50;;
16826;SDS011;8530;49.540;8.576;2023-11-21T10:29:30;10.40;;;9.30;;
16826;SDS011;8530;49.540;8.576;2023-11-21T10:32:00;10.47;;;9.43;;
16826;SDS011;8530;49.540;8.576;2023-11-21T10:34:28;16.63;;;9.40;;
16826;SDS011;8530;49.540;8.576;2023-11-21T10:36:55;11.50;;;9.60;;
16826;SDS011;8530;49.540;8.576;2023-11-21T10:39:23;11.00;;;8.10;;
16826;SDS011;8530;49.540;8.576;2023-11-21T10:41:54;8.67;;;7.67;;
16826;SDS011;8530;49.540;8.576;2023-11-21T10:44:21;11.37;;;8.90;;
16826;SDS011;8530;49.540;8.576;2023-11-21T10:46:49;13.93;;;8.77;;
16826;SDS011;8530;49.540;8.576;2023-11-21T10:49:19;9.53;;;7.87;;
16826;SDS011;8530;49.540;8.576;2023-11-21T10:51:46;8.53;;;7.63;;
16826;SDS011;8530;49.540;8.576;2023-11-21T10:54:16;7.83;;;6.93;;
16826;SDS011;8530;49.540;8.576;2023-11-21T10:56:44;9.60;;;7.90;;
16826;SDS011;8530;49.540;8.576;2023-11-21T10:59:14;9.97;;;7.20;;
16826;SDS011;8530;49.540;8.576;2023-11-21T11:01:41;8.83;;;7.83;;
16826;SDS011;8530;49.540;8.576;2023-11-21T11:04:10;10.57;;;7.73;;
16826;SDS011;8530;49.540;8.576;2023-11-21T11:06:41;11.23;;;7.23;;
16826;SDS011;8530;49.540;8.576;2023-11-21T11:09:09;9.63;;;6.90;;
16826;SDS011;8530;49.540;8.576;2023-11-21T11:11:38;18.93;;;7.90;;
16826;SDS011;8530;49.540;8.576;2023-11-21T11:14:06;9.40;;;7.67;;
16826;SDS011;8530;49.540;8.576;2023-11-21T11:16:36;11.53;;;6.43;;
16826;SDS011;8530;49.540;8.576;2023-11-21T11:19:04;9.03;;;7.80;;
16826;SDS011;8530;49.540;8.576;2023-11-21T11:21:34;13.17;;;7.50;;
16826;SDS011;8530;49.540;8.576;2023-11-21T11:24:13;7.80;;;7.00;;
16826;SDS011;8530;49.540;8.576;2023-11-21T11:26:56;10.73;;;6.90;;
16826;SDS011;8530;49.540;8.576;2023-11-21T11:29:31;9.83;;;7.27;;
16826;SDS011;8530;49.540;8.576;2023-11-21T11:32:09;8.50;;;6.23;;
16826;SDS011;8530;49.540;8.576;2023-11-21T11:34:44;6.33;;;5.73;;
16826;SDS011;8530;49.540;8.576;2023-11-21T11:37:15;10.73;;;7.37;;
16826;SDS011;8530;49.540;8.576;2023-11-21T11:39:43;10.87;;;6.33;;
16826;SDS011;8530;49.540;8.576;2023-11-21T11:42:11;7.53;;;5.80;;
16826;SDS011;8530;49.540;8.576;2023-11-21T11:44:49;7.80;;;6.40;;
16826;SDS011;8530;49.540;8.576;2023-11-21T11:47:23;8.87;;;5.43;;
16826;SDS011;8530;49.540;8.576;2023-11-21T11:49:58;9.83;;;7.43;;
16826;SDS011;8530;49.540;8.576;2023-11-21T11:52:32;7.53;;;5.90;;
16826;SDS011;8530;49.540;8.576;2023-11-21T11:55:05;7.97;;;5.23;;
16826;SDS011;8530;49.540;8.576;2023-11-21T11:57:36;8.80;;;6.30;;
16826;SDS011;8530;49.540;8.576;2023-11-21T12:00:07;20.60;;;6.93;;
16826;SDS011;8530;49.540;8.576;2023-11-21T12:02:42;7.93;;;5.93;;
16826;SDS011;8530;49.540;8.576;2023-11-21T12:05:12;7.37;;;6.07;;
16826;SDS011;8530;49.540;8.576;2023-11-21T12:07:44;13.60;;;6.23;;
16826;SDS011;8530;49.540;8.576;2023-11-21T12:10:18;8.10;;;6.00;;
16826;SDS011;8530;49.540;8.576;2023-11-21T12:12:48;6.43;;;5.50;;
16826;SDS011;8530;49.540;8.576;2023-11-21T12:15:17;9.83;;;6.67;;
16826;SDS011;8530;49.540;8.576;2023-11-21T12:17:46;8.07;;;5.27;;
16826;SDS011;8530;49.540;8.576;2023-11-21T12:20:14;6.83;;;5.40;;
16826;SDS011;8530;49.540;8.576;2023-11-21T12:22:43;6.63;;;5.50;;
16826;SDS011;8530;49.540;8.576;2023-11-21T12:25:12;6.00;;;5.17;;
16826;SDS011;8530;49.540;8.576;2023-11-21T12:27:41;9.80;;;5.00;;
16826;SDS011;8530;49.540;8.576;2023-11-21T12:30:10;7.40;;;5.83;;
16826;SDS011;8530;49.540;8.576;2023-11-21T12:32:40;7.67;;;4.90;;
16826;SDS011;8530;49.540;8.576;2023-11-21T12:35:09;5.73;;;5.10;;
16826;SDS011;8530;49.540;8.576;2023-11-21T12:37:36;6.50;;;4.60;;
16826;SDS011;8530;49.540;8.576;2023-11-21T12:40:04;4.87;;;4.40;;
16826;SDS011;8530;49.540;8.576;2023-11-21T12:42:33;4.83;;;4.37;;
16826;SDS011;8530;49.540;8.576;2023-11-21T12:45:07;5.80;;;4.23;;
16826;SDS011;8530;49.540;8.576;2023-11-21T12:47:39;6.07;;;4.40;;
16826;SDS011;8530;49.540;8.576;2023-11-21T12:50:08;7.33;;;3.80;;
16826;SDS011;8530;49.540;8.576;2023-11-21T12:52:39;9.73;;;4.50;;
16826;SDS011;8530;49.540;8.576;2023-11-21T12:55:10;3.47;;;3.17;;
16826;SDS011;8530;49.540;8.576;2023-11-21T12:57:40;4.03;;;3.50;;
16826;SDS011;8530;49.540;8.576;2023-11-21T13:00:09;4.03;;;2.83;;
16826;SDS011;8530;49.540;8.576;2023-11-21T13:02:41;3.77;;;3.40;;
16826;SDS011;8530;49.540;8.576;2023-11-21T13:05:09;12.30;;;3.57;;
16826;SDS011;8530;49.540;8.576;2023-11-21T13:07:46;3.73;;;3.20;;
16826;SDS011;8530;49.540;8.576;2023-11-21T13:10:15;4.00;;;2.70;;
16826;SDS011;8530;49.540;8.576;2023-11-21T13:12:43;7.83;;;2.90;;
16826;SDS011;8530;49.540;8.576;2023-11-21T13:15:13;3.03;;;2.50;;
16826;SDS011;8530;49.540;8.576;2023-11-21T13:17:42;3.70;;;2.80;;
16826;SDS011;8530;49.540;8.576;2023-11-21T13:20:11;2.97;;;2.57;;
16826;SDS011;8530;49.540;8.576;2023-11-21T13:22:44;5.47;;;3.20;;
16826;SDS011;8530;49.540;8.576;2023-11-21T13:25:13;5.07;;;3.50;;
16826;SDS011;8530;49.540;8.576;2023-11-21T13:27:42;9.50;;;3.97;;
16826;SDS011;8530;49.540;8.576;2023-11-21T13:30:11;6.80;;;4.63;;
16826;SDS011;8530;49.540;8.576;2023-11-21T13:32:41;5.17;;;4.03;;
16826;SDS011;8530;49.540;8.576;2023-11-21T13:35:08;8.97;;;4.97;;
16826;SDS011;8530;49.540;8.576;2023-11-21T13:37:46;4.63;;;3.87;;
16826;SDS011;8530;49.540;8.576;2023-11-21T13:40:16;5.00;;;4.47;;
16826;SDS011;8530;49.540;8.576;2023-11-21T13:42:47;5.20;;;4.33;;
16826;SDS011;8530;49.540;8.576;2023-11-21T13:45:18;5.13;;;3.73;;
16826;SDS011;8530;49.540;8.576;2023-11-21T13:47:46;9.73;;;5.00;;
16826;SDS011;8530;49.540;8.576;2023-11-21T13:50:17;11.63;;;3.30;;
16826;SDS011;8530;49.540;8.576;2023-11-21T13:52:48;5.57;;;3.77;;
16826;SDS011;8530;49.540;8.576;2023-11-21T13:55:16;5.57;;;3.30;;
16826;SDS011;8530;49.540;8.576;2023-11-21T13:57:43;8.80;;;4.00;;
16826;SDS011;8530;49.540;8.576;2023-11-21T14:00:14;4.40;;;3.33;;
16826;SDS011;8530;49.540;8.576;2023-11-21T14:03:01;4.73;;;3.70;;
16826;SDS011;8530;49.540;8.576;2023-11-21T14:05:34;4.90;;;3.50;;
16826;SDS011;8530;49.540;8.576;2023-11-21T14:08:01;5.80;;;3.30;;
16826;SDS011;8530;49.540;8.576;2023-11-21T14:10:29;4.90;;;3.47;;
16826;SDS011;8530;49.540;8.576;2023-11-21T14:13:05;10.30;;;4.20;;
16826;SDS011;8530;49.540;8.576;2023-11-21T14:15:32;6.20;;;3.43;;
16826;SDS011;8530;49.540;8.576;2023-11-21T14:18:03;7.10;;;3.90;;
16826;SDS011;8530;49.540;8.576;2023-11-21T14:20:32;7.40;;;3.93;;
16826;SDS011;8530;49.540;8.576;2023-11-21T14:23:02;10.97;;;4.60;;
16826;SDS011;8530;49.540;8.576;2023-11-21T14:25:29;10.00;;;3.73;;
16826;SDS011;8530;49.540;8.576;2023-11-21T14:27:57;6.07;;;3.97;;
16826;SDS011;8530;49.540;8.576;2023-11-21T14:30:23;7.60;;;3.40;;
16826;SDS011;8530;49.540;8.576;2023-11-21T14:32:51;4.63;;;4.13;;
16826;SDS011;8530;49.540;8.576;2023-11-21T14:35:17;6.47;;;4.13;;
16826;SDS011;8530;49.540;8.576;2023-11-21T14:37:45;5.90;;;4.07;;
16826;SDS011;8530;49.540;8.576;2023-11-21T14:40:12;7.60;;;4.13;;
16826;SDS011;8530;49.540;8.576;2023-11-21T14:42:41;8.70;;;4.43;;
16826;SDS011;8530;49.540;8.576;2023-11-21T14:45:12;7.60;;;3.80;;
16826;SDS011;8530;49.540;8.576;2023-11-21T14:47:44;10.47;;;4.57;;
16826;SDS011;8530;49.540;8.576;2023-11-21T14:50:18;10.60;;;4.90;;
16826;SDS011;8530;49.540;8.576;2023-11-21T14:53:04;10.13;;;3.87;;
16826;SDS011;8530;49.540;8.576;2023-11-21T14:55:31;7.27;;;4.13;;
16826;SDS011;8530;49.540;8.576;2023-11-21T14:58:04;9.73;;;4.77;;
16826;SDS011;8530;49.540;8.576;2023-11-21T15:00:31;16.03;;;4.90;;
16826;SDS011;8530;49.540;8.576;2023-11-21T15:03:10;6.40;;;4.40;;